createdAt,value
2022-11-02T00:00:40.948Z,23.73
2022-11-02T00:03:11.603Z,23.15
2022-11-02T00:05:41.961Z,22.73
2022-11-02T00:08:12.356Z,23.65
2022-11-02T00:10:42.616Z,22.37
2022-11-02T00:13:12.622Z,21.63
2022-11-02T00:15:42.746Z,21.58
2022-11-02T00:18:15.324Z,22.15
2022-11-02T00:20:46.163Z,20.48
2022-11-02T00:23:18.317Z,21.55
2022-11-02T00:25:51.350Z,19.98
2022-11-02T00:28:21.762Z,19.92
2022-11-02T00:30:52.030Z,20.63
2022-11-02T00:33:22.634Z,20.25
2022-11-02T00:35:52.952Z,20.75
2022-11-02T00:38:23.266Z,20.38
2022-11-02T00:40:54.242Z,192.65
2022-11-02T00:43:24.565Z,19.65
2022-11-02T00:45:54.647Z,19.48
2022-11-02T00:48:25.405Z,19.73
2022-11-02T00:50:56.588Z,737.50
2022-11-02T00:53:30.577Z,19.95
2022-11-02T00:56:00.861Z,20.55
2022-11-02T00:58:31.685Z,49.00
2022-11-02T01:01:07.810Z,19.45
2022-11-02T01:03:39.076Z,18.80
2022-11-02T01:06:15.023Z,62.67
2022-11-02T01:08:45.665Z,302.08
2022-11-02T01:11:18.795Z,718.20
2022-11-02T01:13:50.200Z,18.02
2022-11-02T01:16:21.675Z,655.08
2022-11-02T01:18:57.109Z,743.20
2022-11-02T01:21:27.650Z,804.85
2022-11-02T01:23:58.812Z,748.30
2022-11-02T01:28:59.349Z,673.03
2022-11-02T01:31:29.617Z,709.92
2022-11-02T01:33:59.849Z,749.53
2022-11-02T01:36:30.319Z,664.23
2022-11-02T01:39:00.612Z,633.47
2022-11-02T01:41:30.847Z,738.38
2022-11-02T01:44:05.285Z,653.85
2022-11-02T01:46:44.671Z,676.42
2022-11-02T01:49:22.261Z,674.47
2022-11-02T01:51:59.933Z,726.50
2022-11-02T01:54:33.651Z,682.03
2022-11-02T01:57:09.110Z,693.08
2022-11-02T01:59:49.022Z,703.97
2022-11-02T02:02:30.507Z,748.50
2022-11-02T02:05:09.061Z,706.25
2022-11-02T02:07:41.410Z,751.53
2022-11-02T02:10:12.208Z,702.92
2022-11-02T02:12:44.212Z,745.33
2022-11-02T02:15:18.744Z,736.72
2022-11-02T02:17:58.868Z,775.45
2022-11-02T02:20:34.855Z,722.33
2022-11-02T02:23:14.085Z,775.13
2022-11-02T02:25:53.583Z,777.22
2022-11-02T02:28:51.631Z,767.15
2022-11-02T02:31:39.522Z,742.90
2022-11-02T02:34:18.714Z,724.10
2022-11-02T02:37:10.032Z,721.92
2022-11-02T02:42:26.315Z,757.65
2022-11-02T02:45:07.680Z,744.70
2022-11-02T02:47:41.289Z,722.80
2022-11-02T02:50:25.691Z,707.00
2022-11-02T02:52:57.889Z,691.65
2022-11-02T02:58:06.205Z,730.00
2022-11-02T03:00:38.468Z,712.72
2022-11-02T03:03:09.064Z,698.45
2022-11-02T03:05:41.436Z,689.08
2022-11-02T03:08:19.661Z,723.05
2022-11-02T03:11:18.176Z,749.00
2022-11-02T03:14:08.522Z,750.63
2022-11-02T03:16:47.212Z,732.78
2022-11-02T03:19:44.973Z,723.65
2022-11-02T03:22:40.419Z,720.63
2022-11-02T03:25:17.947Z,774.08
2022-11-02T03:27:50.858Z,771.88
2022-11-02T03:30:24.727Z,757.67
2022-11-02T03:33:11.929Z,751.58
2022-11-02T03:41:48.742Z,733.13
2022-11-02T03:44:26.226Z,723.55
2022-11-02T03:53:27.449Z,712.40
2022-11-02T03:56:04.961Z,728.10
2022-11-02T03:58:53.810Z,737.40
2022-11-02T04:01:24.732Z,745.05
2022-11-02T04:03:55.473Z,748.30
2022-11-02T04:06:27.772Z,758.38
2022-11-02T04:08:58.208Z,766.08
2022-11-02T04:11:47.309Z,777.67
2022-11-02T04:14:36.053Z,755.10
2022-11-02T04:17:42.659Z,756.80
2022-11-02T04:23:21.058Z,766.25
2022-11-02T04:25:56.832Z,740.42
2022-11-02T04:28:45.282Z,754.80
2022-11-02T04:31:16.255Z,742.28
2022-11-02T04:33:46.723Z,749.88
2022-11-02T04:36:19.555Z,741.20
2022-11-02T04:38:55.532Z,728.55
2022-11-02T04:41:43.906Z,716.13
2022-11-02T04:44:32.113Z,728.83
2022-11-02T04:49:52.417Z,747.72
2022-11-02T04:52:22.981Z,752.65
2022-11-02T04:54:54.675Z,746.20
2022-11-02T04:57:25.076Z,767.38
2022-11-02T04:59:57.290Z,791.92
2022-11-02T05:02:27.791Z,771.92
2022-11-02T05:04:58.979Z,761.83
2022-11-02T05:07:29.359Z,789.50
2022-11-02T05:13:04.386Z,791.25
2022-11-02T05:15:53.574Z,782.85
2022-11-02T05:18:24.065Z,759.08
2022-11-02T05:20:56.265Z,758.28
2022-11-02T05:23:29.615Z,739.47
2022-11-02T05:28:53.479Z,758.22
2022-11-02T05:31:24.281Z,763.63
2022-11-02T05:33:55.382Z,771.60
2022-11-02T05:38:57.843Z,771.42
2022-11-02T05:41:29.336Z,781.58
2022-11-02T05:44:01.921Z,769.85
2022-11-02T05:46:50.270Z,769.90
2022-11-02T05:49:20.857Z,766.93
2022-11-02T05:51:51.460Z,759.45
2022-11-02T05:54:21.934Z,755.97
2022-11-02T05:57:10.516Z,732.33
2022-11-02T05:59:42.711Z,745.88
2022-11-02T06:02:33.484Z,746.10
2022-11-02T06:07:49.304Z,745.88
2022-11-02T06:10:20.493Z,751.88
2022-11-02T06:12:58.267Z,746.33
2022-11-02T06:15:46.890Z,754.42
2022-11-02T06:18:16.993Z,768.40
2022-11-02T06:20:46.978Z,765.13
2022-11-02T06:23:20.319Z,768.70
2022-11-02T06:25:58.966Z,765.25
2022-11-02T06:28:47.145Z,761.97
2022-11-02T06:31:19.552Z,761.63
2022-11-02T06:33:49.838Z,757.57
2022-11-02T06:36:20.075Z,741.03
2022-11-02T06:38:50.099Z,745.28
2022-11-02T06:41:20.285Z,735.97
2022-11-02T06:43:50.441Z,757.10
2022-11-02T06:46:20.484Z,756.45
2022-11-02T06:48:50.866Z,757.08
2022-11-02T06:51:20.990Z,742.42
2022-11-02T06:53:51.506Z,728.38
2022-11-02T06:56:21.823Z,727.47
2022-11-02T06:58:51.860Z,714.67
2022-11-02T07:01:22.305Z,755.85
2022-11-02T07:03:52.632Z,771.07
2022-11-02T07:06:22.848Z,767.72
2022-11-02T07:08:52.884Z,768.42
2022-11-02T07:11:23.233Z,753.85
2022-11-02T07:14:11.530Z,762.70
2022-11-02T07:19:51.631Z,745.45
2022-11-02T07:22:21.856Z,740.50
2022-11-02T07:24:51.890Z,744.38
2022-11-02T07:27:22.908Z,758.47
2022-11-02T07:29:53.145Z,750.47
2022-11-02T07:32:23.189Z,726.80
2022-11-02T07:34:53.354Z,740.88
2022-11-02T07:37:42.310Z,726.83
2022-11-02T07:40:14.409Z,729.17
2022-11-02T07:43:03.351Z,726.72
2022-11-02T07:45:52.111Z,736.95
2022-11-02T07:48:22.516Z,721.85
2022-11-02T07:50:52.784Z,734.72
2022-11-02T07:53:41.173Z,745.97
2022-11-02T07:56:12.175Z,737.83
2022-11-02T07:59:00.678Z,740.70
2022-11-02T08:01:49.243Z,748.00
2022-11-02T08:04:40.765Z,752.95
2022-11-02T08:07:14.759Z,749.35
2022-11-02T08:10:02.996Z,742.97
2022-11-02T08:12:51.668Z,730.53
2022-11-02T08:15:21.881Z,738.15
2022-11-02T08:18:06.686Z,752.25
2022-11-02T08:20:57.298Z,751.40
2022-11-02T08:23:28.796Z,739.20
2022-11-02T08:26:17.398Z,739.67
2022-11-02T08:28:47.889Z,748.53
2022-11-02T08:31:20.119Z,752.20
2022-11-02T08:33:50.384Z,756.97
2022-11-02T08:36:20.459Z,747.83
2022-11-02T08:38:50.565Z,760.35
2022-11-02T08:41:20.668Z,762.83
2022-11-02T08:43:50.676Z,738.63
2022-11-02T08:46:20.702Z,753.35
2022-11-02T08:48:50.718Z,741.28
2022-11-02T08:51:20.779Z,743.58
2022-11-02T08:53:51.964Z,749.25
2022-11-02T08:56:22.674Z,765.95
2022-11-02T08:58:52.894Z,765.60
2022-11-02T09:01:23.212Z,750.80
2022-11-02T09:03:53.287Z,738.92
2022-11-02T09:06:23.533Z,749.13
2022-11-02T09:08:56.379Z,752.28
2022-11-02T09:11:29.200Z,752.10
2022-11-02T09:13:59.456Z,749.70
2022-11-02T09:16:29.699Z,752.22
2022-11-02T09:18:59.862Z,750.78
2022-11-02T09:21:30.011Z,754.08
2022-11-02T09:24:00.025Z,748.55
2022-11-02T09:26:30.791Z,752.30
2022-11-02T09:29:03.881Z,732.28
2022-11-02T09:31:34.120Z,751.20
2022-11-02T09:34:04.596Z,731.88
2022-11-02T09:36:34.851Z,750.00
2022-11-02T09:39:04.886Z,753.90
2022-11-02T09:41:40.943Z,751.35
2022-11-02T09:44:17.524Z,737.50
2022-11-02T09:47:17.721Z,727.05
2022-11-02T09:49:40.485Z,753.13
2022-11-02T09:52:18.383Z,737.00
2022-11-02T09:54:54.575Z,727.83
2022-11-02T09:57:32.762Z,747.78
2022-11-02T10:00:02.938Z,751.45
2022-11-02T10:02:59.169Z,738.92
2022-11-02T10:06:05.951Z,740.33
2022-11-02T10:08:59.552Z,727.00
2022-11-02T10:11:54.825Z,721.08
2022-11-02T10:14:36.157Z,730.78
2022-11-02T10:17:21.128Z,703.95
2022-11-02T10:19:59.238Z,726.42
2022-11-02T10:22:38.044Z,733.42
2022-11-02T10:25:10.002Z,708.17
2022-11-02T10:27:41.861Z,733.17
2022-11-02T10:30:20.669Z,731.15
2022-11-02T10:32:58.400Z,743.80
2022-11-02T10:36:19.496Z,732.47
2022-11-02T10:39:19.228Z,732.70
2022-11-02T10:42:13.499Z,743.95
2022-11-02T10:45:25.426Z,740.35
2022-11-02T10:48:09.312Z,725.05
2022-11-02T10:50:39.465Z,702.08
2022-11-02T10:56:23.953Z,714.47
2022-11-02T10:59:11.666Z,753.90
2022-11-02T11:01:49.760Z,753.50
2022-11-02T11:04:34.131Z,748.47
2022-11-02T11:07:14.377Z,752.55
2022-11-02T11:09:47.547Z,739.45
2022-11-02T11:12:24.752Z,726.45
2022-11-02T11:20:48.258Z,753.03
2022-11-02T11:23:32.729Z,754.20
2022-11-02T11:26:26.196Z,716.22
2022-11-02T11:28:58.757Z,728.97
2022-11-02T11:31:29.046Z,741.63
2022-11-02T11:34:04.045Z,723.92
2022-11-02T11:36:37.599Z,717.40
2022-11-02T11:39:24.925Z,741.25
2022-11-02T11:41:55.346Z,722.70
2022-11-02T11:44:25.920Z,717.88
2022-11-02T11:47:05.603Z,739.78
2022-11-02T11:50:07.627Z,741.45
2022-11-02T11:52:33.046Z,734.10
2022-11-02T11:55:21.373Z,712.55
2022-11-02T11:58:18.435Z,708.70
2022-11-02T12:00:48.739Z,742.88
2022-11-02T12:03:19.230Z,730.20
2022-11-02T12:06:28.922Z,744.15
2022-11-02T12:09:14.021Z,749.17
2022-11-02T12:12:13.370Z,737.15
2022-11-02T12:14:56.819Z,725.78
2022-11-02T12:17:35.323Z,731.60
2022-11-02T12:20:32.315Z,740.13
2022-11-02T12:23:24.865Z,751.50
2022-11-02T12:26:03.237Z,735.30
2022-11-02T12:29:13.052Z,740.13
2022-11-02T12:31:47.777Z,719.15
2022-11-02T12:34:30.690Z,735.20
2022-11-02T12:37:40.019Z,713.85
2022-11-02T12:40:38.544Z,729.05
2022-11-02T12:44:05.260Z,720.70
2022-11-02T12:46:55.659Z,728.35
2022-11-02T12:49:44.396Z,719.97
2022-11-02T12:52:22.822Z,718.05
2022-11-02T12:55:01.610Z,723.35
2022-11-02T12:57:40.771Z,732.83
2022-11-02T13:00:22.643Z,738.28
2022-11-02T13:03:07.588Z,731.95
2022-11-02T13:05:46.970Z,728.17
2022-11-02T13:08:23.564Z,744.28
2022-11-02T13:11:02.895Z,741.83
2022-11-02T13:13:44.519Z,738.67
2022-11-02T13:16:23.430Z,721.08
2022-11-02T13:18:58.886Z,731.00
2022-11-02T13:21:44.438Z,731.30
2022-11-02T13:24:25.089Z,726.20
2022-11-02T13:27:14.180Z,719.03
2022-11-02T13:29:58.871Z,740.42
2022-11-02T13:32:54.405Z,738.70
2022-11-02T13:35:46.441Z,746.95
2022-11-02T13:38:39.378Z,744.35
2022-11-02T13:43:33.888Z,18.98
2022-11-02T13:46:43.017Z,20.67
2022-11-02T13:52:43.146Z,21.90
2022-11-02T13:55:27.567Z,21.70
2022-11-02T13:58:06.020Z,21.85
2022-11-02T14:00:57.079Z,21.40
2022-11-02T14:03:35.758Z,19.67
2022-11-02T14:06:24.659Z,22.80
2022-11-02T14:09:04.153Z,22.25
2022-11-02T14:11:45.617Z,22.58
2022-11-02T14:14:26.461Z,21.55
2022-11-02T14:17:06.033Z,22.47
2022-11-02T14:20:05.327Z,23.88
2022-11-02T14:22:38.088Z,25.65
2022-11-02T14:25:27.217Z,23.83
2022-11-02T14:28:06.366Z,23.85
2022-11-02T14:30:58.162Z,25.00
2022-11-02T14:33:55.750Z,24.02
2022-11-02T14:36:43.420Z,22.58
2022-11-02T14:39:43.199Z,21.88
2022-11-02T14:46:09.396Z,23.20
2022-11-02T14:49:06.697Z,21.25
2022-11-02T14:51:44.364Z,22.38
2022-11-02T14:54:25.977Z,22.40
2022-11-02T14:57:25.858Z,21.23
2022-11-02T15:00:16.768Z,20.42
2022-11-02T15:02:52.563Z,21.33
2022-11-02T15:05:59.092Z,21.98
2022-11-02T15:08:54.595Z,20.67
2022-11-02T15:12:07.408Z,19.73
2022-11-02T15:17:36.199Z,22.58
2022-11-02T15:20:24.222Z,21.27
2022-11-02T15:23:11.824Z,21.02
2022-11-02T15:25:59.393Z,21.95
2022-11-02T15:28:39.551Z,22.08
2022-11-02T15:31:36.302Z,21.77
2022-11-02T15:34:25.198Z,21.95
2022-11-02T15:36:58.910Z,22.63
2022-11-02T15:39:40.152Z,22.15
2022-11-02T15:42:29.729Z,21.23
2022-11-02T15:45:26.868Z,22.40
2022-11-02T15:48:32.046Z,21.70
2022-11-02T15:51:40.283Z,22.27
2022-11-02T15:54:52.275Z,22.83
2022-11-02T15:57:31.593Z,21.52
2022-11-02T16:00:19.473Z,21.63
2022-11-02T16:02:57.008Z,21.20
2022-11-02T16:05:50.388Z,21.58
2022-11-02T16:08:33.525Z,19.67
2022-11-02T16:11:23.103Z,19.83
2022-11-02T16:14:08.420Z,19.15
2022-11-02T16:16:57.209Z,19.58
2022-11-02T16:19:27.421Z,20.08
2022-11-02T16:24:49.818Z,19.60
2022-11-02T16:27:42.153Z,18.92
2022-11-02T16:30:21.925Z,19.60
2022-11-02T16:33:02.216Z,20.23
2022-11-02T16:35:32.638Z,18.60
2022-11-02T16:38:03.731Z,19.27
2022-11-02T16:40:52.830Z,18.63
2022-11-02T16:43:24.415Z,19.43
2022-11-02T16:46:02.637Z,18.55
2022-11-02T16:49:13.846Z,19.50
2022-11-02T16:52:23.937Z,19.10
2022-11-02T16:54:54.197Z,19.67
2022-11-02T16:57:28.676Z,19.45
2022-11-02T17:00:02.264Z,18.55
2022-11-02T17:02:40.682Z,19.02
2022-11-02T17:05:43.357Z,18.40
2022-11-02T17:08:35.487Z,18.42
2022-11-02T17:11:08.052Z,17.80
2022-11-02T17:13:46.047Z,18.45
2022-11-02T17:16:16.353Z,19.48
2022-11-02T17:18:46.587Z,19.40
2022-11-02T17:21:16.728Z,18.30
2022-11-02T17:23:50.676Z,17.70
2022-11-02T17:26:27.117Z,17.77
2022-11-02T17:29:03.514Z,17.42
2022-11-02T17:31:43.178Z,18.42
2022-11-02T17:34:21.587Z,18.35
2022-11-02T17:36:52.856Z,18.15
2022-11-02T17:42:17.644Z,19.23
2022-11-02T17:44:47.838Z,16.95
2022-11-02T17:47:20.930Z,17.77
2022-11-02T17:49:50.905Z,18.05
2022-11-02T17:52:21.038Z,19.10
2022-11-02T17:54:51.044Z,18.08
2022-11-02T17:57:21.500Z,19.05
2022-11-02T17:59:52.628Z,18.67
2022-11-02T18:02:22.829Z,17.98
2022-11-02T18:04:53.091Z,18.92
2022-11-02T18:07:23.301Z,19.08
2022-11-02T18:09:54.122Z,18.80
2022-11-02T18:12:24.373Z,19.92
2022-11-02T18:14:54.468Z,19.10
2022-11-02T18:17:24.482Z,19.25
2022-11-02T18:19:54.447Z,18.88
2022-11-02T18:22:24.448Z,19.80
2022-11-02T18:24:54.394Z,19.38
2022-11-02T18:27:27.737Z,20.90
2022-11-02T18:29:58.828Z,20.55
2022-11-02T18:32:28.838Z,20.17
2022-11-02T18:34:58.810Z,20.48
2022-11-02T18:37:28.858Z,19.75
2022-11-02T18:39:58.923Z,19.83
2022-11-02T18:42:29.164Z,20.17
2022-11-02T18:45:00.374Z,22.08
2022-11-02T18:47:32.297Z,23.00
2022-11-02T18:50:03.010Z,19.63
2022-11-02T18:52:33.131Z,19.93
2022-11-02T18:55:07.654Z,21.67
2022-11-02T18:57:37.943Z,21.30
2022-11-02T19:00:08.737Z,21.55
2022-11-02T19:02:40.167Z,21.63
2022-11-02T19:08:21.804Z,20.10
2022-11-02T19:10:52.015Z,19.60
2022-11-02T19:13:22.237Z,19.55
2022-11-02T19:15:52.495Z,19.63
2022-11-02T19:18:22.516Z,19.00
2022-11-02T19:20:52.884Z,20.58
2022-11-02T19:23:23.074Z,20.15
2022-11-02T19:25:54.188Z,19.30
2022-11-02T19:28:24.439Z,18.75
2022-11-02T19:30:54.505Z,19.52
2022-11-02T19:33:25.335Z,20.07
2022-11-02T19:36:00.190Z,20.17
2022-11-02T19:38:30.406Z,19.77
2022-11-02T19:41:04.212Z,19.92
2022-11-02T19:43:34.810Z,19.13
2022-11-02T19:46:06.419Z,18.43
2022-11-02T19:48:40.461Z,18.50
2022-11-02T19:51:22.833Z,19.30
2022-11-02T19:53:54.981Z,18.60
2022-11-02T19:56:26.085Z,19.13
2022-11-02T19:58:57.368Z,19.48
2022-11-02T20:01:34.495Z,18.90
2022-11-02T20:04:05.306Z,18.85
2022-11-02T20:06:41.378Z,18.88
2022-11-02T20:09:17.875Z,19.98
2022-11-02T20:11:49.453Z,19.60
2022-11-02T20:14:20.463Z,20.77
2022-11-02T20:17:04.216Z,20.23
2022-11-02T20:19:41.277Z,20.17
2022-11-02T20:22:11.570Z,19.33
2022-11-02T20:24:41.792Z,19.73
2022-11-02T20:27:12.380Z,21.27
2022-11-02T20:29:42.857Z,19.60
2022-11-02T20:32:14.667Z,20.80
2022-11-02T20:34:44.860Z,22.75
2022-11-02T20:37:14.964Z,22.27
2022-11-02T20:39:45.189Z,21.88
2022-11-02T20:42:15.467Z,22.13
2022-11-02T20:44:51.204Z,22.92
2022-11-02T20:47:21.412Z,22.90
2022-11-02T20:49:51.724Z,20.58
2022-11-02T20:52:24.150Z,24.25
2022-11-02T20:54:54.218Z,23.73
2022-11-02T20:57:25.280Z,23.38
2022-11-02T20:59:55.507Z,23.50
2022-11-02T21:02:26.873Z,22.15
2022-11-02T21:07:26.700Z,23.65
2022-11-02T21:09:56.955Z,23.90
2022-11-02T21:12:45.593Z,22.92
2022-11-02T21:15:16.081Z,23.17
2022-11-02T21:17:46.260Z,24.87
2022-11-02T21:23:08.467Z,24.45
2022-11-02T21:25:39.034Z,25.33
2022-11-02T21:28:10.053Z,22.17
2022-11-02T21:30:40.133Z,23.23
2022-11-02T21:33:10.367Z,24.08
2022-11-02T21:35:40.546Z,23.65
2022-11-02T21:38:10.757Z,25.15
2022-11-02T21:40:40.819Z,23.33
2022-11-02T21:43:11.073Z,23.27
2022-11-02T21:45:41.279Z,23.25
2022-11-02T21:48:11.354Z,22.33
2022-11-02T21:50:41.389Z,24.30
2022-11-02T21:53:11.394Z,25.45
2022-11-02T21:55:41.545Z,23.52
2022-11-02T21:58:13.059Z,22.70
2022-11-02T22:01:02.005Z,23.05
2022-11-02T22:03:32.388Z,23.00
2022-11-02T22:06:02.606Z,25.20
2022-11-02T22:08:42.002Z,22.67
2022-11-02T22:11:17.970Z,22.83
2022-11-02T22:13:48.326Z,25.58
2022-11-02T22:16:39.682Z,24.53
2022-11-02T22:19:15.608Z,23.67
2022-11-02T22:21:47.373Z,22.40
2022-11-02T22:24:17.592Z,23.08
2022-11-02T22:26:47.933Z,23.23
2022-11-02T22:29:18.567Z,23.25
2022-11-02T22:31:49.014Z,22.80
2022-11-02T22:34:19.503Z,24.63
2022-11-02T22:36:49.709Z,22.92
2022-11-02T22:39:20.095Z,22.63
2022-11-02T22:41:50.894Z,21.27
2022-11-02T22:44:25.575Z,20.60
2022-11-02T22:46:55.916Z,22.30
2022-11-02T22:49:26.468Z,22.58
2022-11-02T22:51:57.018Z,23.23
2022-11-02T22:54:27.313Z,24.98
2022-11-02T22:56:58.406Z,24.38
2022-11-02T23:02:14.728Z,23.88
2022-11-02T23:04:44.995Z,25.50
2022-11-02T23:07:15.319Z,25.42
2022-11-02T23:09:45.543Z,22.60
2022-11-02T23:12:15.741Z,23.52
2022-11-02T23:14:45.971Z,22.70
2022-11-02T23:17:16.199Z,21.23
2022-11-02T23:19:47.127Z,20.60
2022-11-02T23:22:35.459Z,20.30
2022-11-02T23:25:22.201Z,20.38
2022-11-02T23:28:18.636Z,19.95
2022-11-02T23:31:07.174Z,20.23
2022-11-02T23:33:41.248Z,21.58
2022-11-02T23:36:15.120Z,21.27
2022-11-02T23:39:08.352Z,19.38
2022-11-02T23:41:43.731Z,19.10
2022-11-02T23:44:14.150Z,19.73
2022-11-02T23:46:46.484Z,18.65
2022-11-02T23:49:19.466Z,19.13
2022-11-02T23:52:07.843Z,19.02
2022-11-02T23:54:56.392Z,16.90
2022-11-02T23:57:27.755Z,18.60
